Mount Carmel, Utah
Current Conditions -  °F | °C
As of 6:55 AM on Friday 31 Oct 2014 (Local Time) from KAZC Reporting Station
Clear Clear  
Wind Chill: 47°   Ceiling: Unl
Heat Index: 49°   Visibility: 10mi
Dew Point: 26°   Wind: 6mph
Humidity: 40%   Direction: 190°S
Pressure: 30.13"   Gusts: NA
Location:  37.25°N, 112.67°W
Report Text: KAZC 311255Z AUTO 19005KT 10SM CLR 09/M04 A3013 RMK AO2 T00941036
Loading
Personal Weather Stations






























Interactive Weather Map
Tropical Storm Tracking
New forecast layout! Learn more

10-Day Weather Forecast

Advertisements
Track Severe Weather on mobile